sensor_id;sensor_type;location;lat;lon;timestamp;pressure;altitude;pressure_sealevel;temperature
25514;BMP180;48128;54.242;10.280;2024-03-08T00:00:11;102100.00;;;-0.70
25514;BMP180;48128;54.242;10.280;2024-03-08T00:02:43;102105.00;;;-0.70
25514;BMP180;48128;54.242;10.280;2024-03-08T00:05:11;102099.00;;;-0.80
25514;BMP180;48128;54.242;10.280;2024-03-08T00:07:39;102105.00;;;-0.80
25514;BMP180;48128;54.242;10.280;2024-03-08T00:10:08;102093.00;;;-0.80
25514;BMP180;48128;54.242;10.280;2024-03-08T00:12:42;102093.00;;;-0.80
25514;BMP180;48128;54.242;10.280;2024-03-08T00:15:10;102091.00;;;-0.80
25514;BMP180;48128;54.242;10.280;2024-03-08T00:17:37;102092.00;;;-0.80
25514;BMP180;48128;54.242;10.280;2024-03-08T00:20:05;102092.00;;;-0.80
25514;BMP180;48128;54.242;10.280;2024-03-08T00:22:35;102088.00;;;-0.80
25514;BMP180;48128;54.242;10.280;2024-03-08T00:25:06;102096.00;;;-0.90
25514;BMP180;48128;54.242;10.280;2024-03-08T00:27:37;102094.00;;;-0.90
25514;BMP180;48128;54.242;10.280;2024-03-08T00:30:06;102094.00;;;-1.00
25514;BMP180;48128;54.242;10.280;2024-03-08T00:32:33;102090.00;;;-1.00
25514;BMP180;48128;54.242;10.280;2024-03-08T00:35:00;102086.00;;;-1.00
25514;BMP180;48128;54.242;10.280;2024-03-08T00:37:28;102091.00;;;-1.10
25514;BMP180;48128;54.242;10.280;2024-03-08T00:39:55;102094.00;;;-1.10
25514;BMP180;48128;54.242;10.280;2024-03-08T00:42:22;102092.00;;;-1.10
25514;BMP180;48128;54.242;10.280;2024-03-08T00:44:51;102092.00;;;-1.10
25514;BMP180;48128;54.242;10.280;2024-03-08T00:47:19;102093.00;;;-1.10
25514;BMP180;48128;54.242;10.280;2024-03-08T00:49:46;102075.00;;;-1.10
25514;BMP180;48128;54.242;10.280;2024-03-08T00:52:13;102085.00;;;-1.10
25514;BMP180;48128;54.242;10.280;2024-03-08T00:54:41;102078.00;;;-1.10
25514;BMP180;48128;54.242;10.280;2024-03-08T00:57:11;102077.00;;;-1.10
25514;BMP180;48128;54.242;10.280;2024-03-08T00:59:39;102064.00;;;-1.20
25514;BMP180;48128;54.242;10.280;2024-03-08T01:02:06;102067.00;;;-1.20
25514;BMP180;48128;54.242;10.280;2024-03-08T01:04:36;102062.00;;;-1.20
25514;BMP180;48128;54.242;10.280;2024-03-08T01:07:03;102060.00;;;-1.20
25514;BMP180;48128;54.242;10.280;2024-03-08T01:09:30;102055.00;;;-1.20
25514;BMP180;48128;54.242;10.280;2024-03-08T01:11:57;102065.00;;;-1.20
25514;BMP180;48128;54.242;10.280;2024-03-08T01:14:25;102063.00;;;-1.30
25514;BMP180;48128;54.242;10.280;2024-03-08T01:16:56;102055.00;;;-1.30
25514;BMP180;48128;54.242;10.280;2024-03-08T01:19:23;102055.00;;;-1.30
25514;BMP180;48128;54.242;10.280;2024-03-08T01:21:51;102052.00;;;-1.30
25514;BMP180;48128;54.242;10.280;2024-03-08T01:24:19;102046.00;;;-1.30
25514;BMP180;48128;54.242;10.280;2024-03-08T01:26:46;102047.00;;;-1.30
25514;BMP180;48128;54.242;10.280;2024-03-08T01:29:14;102026.00;;;-1.40
25514;BMP180;48128;54.242;10.280;2024-03-08T01:31:41;102045.00;;;-1.40
25514;BMP180;48128;54.242;10.280;2024-03-08T01:34:08;102032.00;;;-1.40
25514;BMP180;48128;54.242;10.280;2024-03-08T01:36:35;102030.00;;;-1.30
25514;BMP180;48128;54.242;10.280;2024-03-08T01:39:04;102025.00;;;-1.30
25514;BMP180;48128;54.242;10.280;2024-03-08T01:41:35;102033.00;;;-1.30
25514;BMP180;48128;54.242;10.280;2024-03-08T01:44:03;102019.00;;;-1.20
25514;BMP180;48128;54.242;10.280;2024-03-08T01:46:30;102004.00;;;-1.30
25514;BMP180;48128;54.242;10.280;2024-03-08T01:48:58;102011.00;;;-1.30
25514;BMP180;48128;54.242;10.280;2024-03-08T01:51:25;102019.00;;;-1.40
25514;BMP180;48128;54.242;10.280;2024-03-08T01:53:52;101997.00;;;-1.40
25514;BMP180;48128;54.242;10.280;2024-03-08T01:56:19;102003.00;;;-1.40
25514;BMP180;48128;54.242;10.280;2024-03-08T01:58:46;102006.00;;;-1.40
25514;BMP180;48128;54.242;10.280;2024-03-08T02:01:14;101988.00;;;-1.40
25514;BMP180;48128;54.242;10.280;2024-03-08T02:03:42;102007.00;;;-1.40
25514;BMP180;48128;54.242;10.280;2024-03-08T02:06:12;101997.00;;;-1.40
25514;BMP180;48128;54.242;10.280;2024-03-08T02:08:42;101999.00;;;-1.40
25514;BMP180;48128;54.242;10.280;2024-03-08T02:11:10;101996.00;;;-1.40
25514;BMP180;48128;54.242;10.280;2024-03-08T02:13:38;101989.00;;;-1.40
25514;BMP180;48128;54.242;10.280;2024-03-08T02:16:05;101972.00;;;-1.40
25514;BMP180;48128;54.242;10.280;2024-03-08T02:18:35;101978.00;;;-1.40
25514;BMP180;48128;54.242;10.280;2024-03-08T02:21:04;101979.00;;;-1.40
25514;BMP180;48128;54.242;10.280;2024-03-08T02:23:32;101966.00;;;-1.40
25514;BMP180;48128;54.242;10.280;2024-03-08T02:25:59;101973.00;;;-1.30
25514;BMP180;48128;54.242;10.280;2024-03-08T02:28:26;101958.00;;;-1.20
25514;BMP180;48128;54.242;10.280;2024-03-08T02:30:54;101957.00;;;-1.00
25514;BMP180;48128;54.242;10.280;2024-03-08T02:33:23;101966.00;;;-0.80
25514;BMP180;48128;54.242;10.280;2024-03-08T02:35:50;101960.00;;;-0.70
25514;BMP180;48128;54.242;10.280;2024-03-08T02:38:19;101955.00;;;-0.60
25514;BMP180;48128;54.242;10.280;2024-03-08T02:40:50;101947.00;;;-0.50
25514;BMP180;48128;54.242;10.280;2024-03-08T02:43:18;101958.00;;;-0.40
25514;BMP180;48128;54.242;10.280;2024-03-08T02:45:45;101947.00;;;-0.40
25514;BMP180;48128;54.242;10.280;2024-03-08T02:48:13;101958.00;;;-0.30
25514;BMP180;48128;54.242;10.280;2024-03-08T02:50:41;101955.00;;;-0.20
25514;BMP180;48128;54.242;10.280;2024-03-08T02:53:12;101953.00;;;-0.20
25514;BMP180;48128;54.242;10.280;2024-03-08T02:55:40;101953.00;;;-0.10
25514;BMP180;48128;54.242;10.280;2024-03-08T02:58:09;101946.00;;;-0.10
25514;BMP180;48128;54.242;10.280;2024-03-08T03:00:38;101941.00;;;-0.10
25514;BMP180;48128;54.242;10.280;2024-03-08T03:03:08;101938.00;;;0.00
25514;BMP180;48128;54.242;10.280;2024-03-08T03:05:36;101938.00;;;0.00
25514;BMP180;48128;54.242;10.280;2024-03-08T03:08:03;101935.00;;;0.00
25514;BMP180;48128;54.242;10.280;2024-03-08T03:10:36;101937.00;;;0.10
25514;BMP180;48128;54.242;10.280;2024-03-08T03:13:04;101939.00;;;0.20
25514;BMP180;48128;54.242;10.280;2024-03-08T03:15:31;101945.00;;;0.20
25514;BMP180;48128;54.242;10.280;2024-03-08T03:18:01;101938.00;;;0.20
25514;BMP180;48128;54.242;10.280;2024-03-08T03:20:28;101947.00;;;0.20
25514;BMP180;48128;54.242;10.280;2024-03-08T03:23:07;101937.00;;;0.20
25514;BMP180;48128;54.242;10.280;2024-03-08T03:25:35;101955.00;;;0.30
25514;BMP180;48128;54.242;10.280;2024-03-08T03:28:03;101941.00;;;0.30
25514;BMP180;48128;54.242;10.280;2024-03-08T03:30:31;101937.00;;;0.40
25514;BMP180;48128;54.242;10.280;2024-03-08T03:33:01;101947.00;;;0.40
25514;BMP180;48128;54.242;10.280;2024-03-08T03:35:29;101938.00;;;0.50
25514;BMP180;48128;54.242;10.280;2024-03-08T03:37:56;101929.00;;;0.50
25514;BMP180;48128;54.242;10.280;2024-03-08T03:40:36;101938.00;;;0.60
25514;BMP180;48128;54.242;10.280;2024-03-08T03:43:03;101948.00;;;0.60
25514;BMP180;48128;54.242;10.280;2024-03-08T03:45:30;101944.00;;;0.60
25514;BMP180;48128;54.242;10.280;2024-03-08T03:48:07;101938.00;;;0.60
25514;BMP180;48128;54.242;10.280;2024-03-08T03:50:38;101936.00;;;0.60
25514;BMP180;48128;54.242;10.280;2024-03-08T03:53:06;101920.00;;;0.60
25514;BMP180;48128;54.242;10.280;2024-03-08T03:55:36;101929.00;;;0.70
25514;BMP180;48128;54.242;10.280;2024-03-08T03:58:06;101922.00;;;0.70
25514;BMP180;48128;54.242;10.280;2024-03-08T04:00:33;101924.00;;;0.70
25514;BMP180;48128;54.242;10.280;2024-03-08T04:03:00;101922.00;;;0.70
25514;BMP180;48128;54.242;10.280;2024-03-08T04:05:28;101913.00;;;0.70
25514;BMP180;48128;54.242;10.280;2024-03-08T04:07:55;101926.00;;;0.80
25514;BMP180;48128;54.242;10.280;2024-03-08T04:10:22;101919.00;;;0.80
25514;BMP180;48128;54.242;10.280;2024-03-08T04:12:49;101911.00;;;0.80
25514;BMP180;48128;54.242;10.280;2024-03-08T04:15:16;101921.00;;;0.80
25514;BMP180;48128;54.242;10.280;2024-03-08T04:17:43;101909.00;;;0.80
25514;BMP180;48128;54.242;10.280;2024-03-08T04:20:13;101915.00;;;0.80
25514;BMP180;48128;54.242;10.280;2024-03-08T04:22:42;101925.00;;;0.80
25514;BMP180;48128;54.242;10.280;2024-03-08T04:25:11;101905.00;;;0.90
25514;BMP180;48128;54.242;10.280;2024-03-08T04:27:38;101917.00;;;0.90
25514;BMP180;48128;54.242;10.280;2024-03-08T04:30:05;101925.00;;;0.90
25514;BMP180;48128;54.242;10.280;2024-03-08T04:32:34;101909.00;;;0.90
25514;BMP180;48128;54.242;10.280;2024-03-08T04:35:02;101903.00;;;0.90
25514;BMP180;48128;54.242;10.280;2024-03-08T04:37:30;101914.00;;;0.90
25514;BMP180;48128;54.242;10.280;2024-03-08T04:39:58;101917.00;;;0.90
25514;BMP180;48128;54.242;10.280;2024-03-08T04:42:25;101903.00;;;0.90
25514;BMP180;48128;54.242;10.280;2024-03-08T04:44:53;101906.00;;;0.90
25514;BMP180;48128;54.242;10.280;2024-03-08T04:47:21;101917.00;;;0.90
25514;BMP180;48128;54.242;10.280;2024-03-08T04:49:48;101898.00;;;0.90
25514;BMP180;48128;54.242;10.280;2024-03-08T04:52:15;101912.00;;;0.90
25514;BMP180;48128;54.242;10.280;2024-03-08T04:54:43;101897.00;;;0.90
25514;BMP180;48128;54.242;10.280;2024-03-08T04:57:10;101904.00;;;0.90
25514;BMP180;48128;54.242;10.280;2024-03-08T04:59:37;101905.00;;;0.90
25514;BMP180;48128;54.242;10.280;2024-03-08T05:02:04;101910.00;;;1.00
25514;BMP180;48128;54.242;10.280;2024-03-08T05:04:31;101912.00;;;1.00
25514;BMP180;48128;54.242;10.280;2024-03-08T05:06:58;101900.00;;;1.00
25514;BMP180;48128;54.242;10.280;2024-03-08T05:09:28;101899.00;;;1.00
25514;BMP180;48128;54.242;10.280;2024-03-08T05:11:55;101913.00;;;1.00
25514;BMP180;48128;54.242;10.280;2024-03-08T05:14:25;101903.00;;;1.00
25514;BMP180;48128;54.242;10.280;2024-03-08T05:16:52;101909.00;;;1.00
25514;BMP180;48128;54.242;10.280;2024-03-08T05:19:20;101896.00;;;1.00
25514;BMP180;48128;54.242;10.280;2024-03-08T05:21:48;101897.00;;;1.00
25514;BMP180;48128;54.242;10.280;2024-03-08T05:24:16;101892.00;;;1.00
25514;BMP180;48128;54.242;10.280;2024-03-08T05:26:44;101898.00;;;1.00
25514;BMP180;48128;54.242;10.280;2024-03-08T05:29:12;101896.00;;;1.00
25514;BMP180;48128;54.242;10.280;2024-03-08T05:31:50;101897.00;;;1.00
25514;BMP180;48128;54.242;10.280;2024-03-08T05:34:19;101892.00;;;1.10
25514;BMP180;48128;54.242;10.280;2024-03-08T05:36:47;101896.00;;;1.10
25514;BMP180;48128;54.242;10.280;2024-03-08T05:39:16;101905.00;;;1.10
25514;BMP180;48128;54.242;10.280;2024-03-08T05:41:44;101903.00;;;1.10
25514;BMP180;48128;54.242;10.280;2024-03-08T05:44:12;101893.00;;;1.10
25514;BMP180;48128;54.242;10.280;2024-03-08T05:46:39;101909.00;;;1.10
25514;BMP180;48128;54.242;10.280;2024-03-08T05:49:07;101903.00;;;1.10
25514;BMP180;48128;54.242;10.280;2024-03-08T05:51:35;101899.00;;;1.10
25514;BMP180;48128;54.242;10.280;2024-03-08T05:54:03;101895.00;;;1.20
25514;BMP180;48128;54.242;10.280;2024-03-08T05:56:33;101904.00;;;1.20
25514;BMP180;48128;54.242;10.280;2024-03-08T05:59:03;101900.00;;;1.20
25514;BMP180;48128;54.242;10.280;2024-03-08T06:01:30;101894.00;;;1.20
25514;BMP180;48128;54.242;10.280;2024-03-08T06:03:58;101889.00;;;1.20
25514;BMP180;48128;54.242;10.280;2024-03-08T06:06:25;101889.00;;;1.20
25514;BMP180;48128;54.242;10.280;2024-03-08T06:08:53;101898.00;;;1.20
25514;BMP180;48128;54.242;10.280;2024-03-08T06:11:20;101885.00;;;1.20
25514;BMP180;48128;54.242;10.280;2024-03-08T06:13:47;101877.00;;;1.30
25514;BMP180;48128;54.242;10.280;2024-03-08T06:16:15;101881.00;;;1.20
25514;BMP180;48128;54.242;10.280;2024-03-08T06:18:42;101895.00;;;1.30
25514;BMP180;48128;54.242;10.280;2024-03-08T06:21:09;101888.00;;;1.30
25514;BMP180;48128;54.242;10.280;2024-03-08T06:23:38;101891.00;;;1.30
25514;BMP180;48128;54.242;10.280;2024-03-08T06:26:06;101894.00;;;1.30
25514;BMP180;48128;54.242;10.280;2024-03-08T06:28:33;101880.00;;;1.30
25514;BMP180;48128;54.242;10.280;2024-03-08T06:31:02;101886.00;;;1.30
25514;BMP180;48128;54.242;10.280;2024-03-08T06:33:29;101882.00;;;1.30
25514;BMP180;48128;54.242;10.280;2024-03-08T06:35:59;101885.00;;;1.30
25514;BMP180;48128;54.242;10.280;2024-03-08T06:38:26;101893.00;;;1.30
25514;BMP180;48128;54.242;10.280;2024-03-08T06:40:53;101895.00;;;1.40
25514;BMP180;48128;54.242;10.280;2024-03-08T06:43:21;101894.00;;;1.40
25514;BMP180;48128;54.242;10.280;2024-03-08T06:45:49;101884.00;;;1.40
25514;BMP180;48128;54.242;10.280;2024-03-08T06:48:16;101883.00;;;1.40
25514;BMP180;48128;54.242;10.280;2024-03-08T06:50:46;101883.00;;;1.50
25514;BMP180;48128;54.242;10.280;2024-03-08T06:53:14;101886.00;;;1.50
25514;BMP180;48128;54.242;10.280;2024-03-08T06:55:44;101889.00;;;1.50
25514;BMP180;48128;54.242;10.280;2024-03-08T06:58:11;101888.00;;;1.50
25514;BMP180;48128;54.242;10.280;2024-03-08T07:00:38;101890.00;;;1.50
25514;BMP180;48128;54.242;10.280;2024-03-08T07:03:08;101880.00;;;1.50
25514;BMP180;48128;54.242;10.280;2024-03-08T07:05:38;101889.00;;;1.60
25514;BMP180;48128;54.242;10.280;2024-03-08T07:08:07;101886.00;;;1.60
25514;BMP180;48128;54.242;10.280;2024-03-08T07:10:35;101898.00;;;1.60
25514;BMP180;48128;54.242;10.280;2024-03-08T07:13:03;101887.00;;;1.70
25514;BMP180;48128;54.242;10.280;2024-03-08T07:15:30;101896.00;;;1.70
25514;BMP180;48128;54.242;10.280;2024-03-08T07:17:57;101895.00;;;1.80
25514;BMP180;48128;54.242;10.280;2024-03-08T07:20:26;101897.00;;;1.80
25514;BMP180;48128;54.242;10.280;2024-03-08T07:22:55;101891.00;;;1.80
25514;BMP180;48128;54.242;10.280;2024-03-08T07:25:22;101883.00;;;1.80
25514;BMP180;48128;54.242;10.280;2024-03-08T07:27:51;101887.00;;;1.90
25514;BMP180;48128;54.242;10.280;2024-03-08T07:30:24;101895.00;;;1.90
25514;BMP180;48128;54.242;10.280;2024-03-08T07:33:10;101889.00;;;1.90
25514;BMP180;48128;54.242;10.280;2024-03-08T07:35:41;101888.00;;;1.90
25514;BMP180;48128;54.242;10.280;2024-03-08T07:38:09;101883.00;;;1.90
25514;BMP180;48128;54.242;10.280;2024-03-08T07:40:38;101875.00;;;2.00
25514;BMP180;48128;54.242;10.280;2024-03-08T07:43:08;101886.00;;;2.10
25514;BMP180;48128;54.242;10.280;2024-03-08T07:45:35;101894.00;;;2.20
25514;BMP180;48128;54.242;10.280;2024-03-08T07:48:03;101890.00;;;2.30
25514;BMP180;48128;54.242;10.280;2024-03-08T07:50:31;101882.00;;;2.40
25514;BMP180;48128;54.242;10.280;2024-03-08T07:53:00;101885.00;;;2.60
25514;BMP180;48128;54.242;10.280;2024-03-08T07:55:29;101888.00;;;2.60
25514;BMP180;48128;54.242;10.280;2024-03-08T07:57:57;101897.00;;;2.70
25514;BMP180;48128;54.242;10.280;2024-03-08T08:00:24;101883.00;;;2.80
25514;BMP180;48128;54.242;10.280;2024-03-08T08:02:54;101889.00;;;2.90
25514;BMP180;48128;54.242;10.280;2024-03-08T08:05:21;101887.00;;;2.90
25514;BMP180;48128;54.242;10.280;2024-03-08T08:07:48;101892.00;;;3.10
25514;BMP180;48128;54.242;10.280;2024-03-08T08:10:18;101896.00;;;3.20
25514;BMP180;48128;54.242;10.280;2024-03-08T08:12:48;101899.00;;;3.20
25514;BMP180;48128;54.242;10.280;2024-03-08T08:15:16;101908.00;;;3.10
25514;BMP180;48128;54.242;10.280;2024-03-08T08:17:46;101919.00;;;3.10
25514;BMP180;48128;54.242;10.280;2024-03-08T08:20:14;101931.00;;;2.90
25514;BMP180;48128;54.242;10.280;2024-03-08T08:22:42;101916.00;;;2.90
25514;BMP180;48128;54.242;10.280;2024-03-08T08:25:12;101923.00;;;2.80
25514;BMP180;48128;54.242;10.280;2024-03-08T08:27:40;101910.00;;;2.70
25514;BMP180;48128;54.242;10.280;2024-03-08T08:30:09;101900.00;;;2.80
25514;BMP180;48128;54.242;10.280;2024-03-08T08:32:38;101896.00;;;2.90
25514;BMP180;48128;54.242;10.280;2024-03-08T08:35:14;101914.00;;;3.00
25514;BMP180;48128;54.242;10.280;2024-03-08T08:37:41;101918.00;;;3.00
25514;BMP180;48128;54.242;10.280;2024-03-08T08:40:08;101914.00;;;2.90
25514;BMP180;48128;54.242;10.280;2024-03-08T08:42:42;101913.00;;;2.90
25514;BMP180;48128;54.242;10.280;2024-03-08T08:45:09;101914.00;;;2.90
25514;BMP180;48128;54.242;10.280;2024-03-08T08:47:43;101910.00;;;2.90
25514;BMP180;48128;54.242;10.280;2024-03-08T08:50:12;101906.00;;;3.00
25514;BMP180;48128;54.242;10.280;2024-03-08T08:52:40;101905.00;;;3.10
25514;BMP180;48128;54.242;10.280;2024-03-08T08:55:07;101909.00;;;3.10
25514;BMP180;48128;54.242;10.280;2024-03-08T08:57:35;101896.00;;;3.20
25514;BMP180;48128;54.242;10.280;2024-03-08T09:00:06;101889.00;;;3.30
25514;BMP180;48128;54.242;10.280;2024-03-08T09:02:34;101887.00;;;3.40
25514;BMP180;48128;54.242;10.280;2024-03-08T09:05:02;101908.00;;;3.40
25514;BMP180;48128;54.242;10.280;2024-03-08T09:07:29;101896.00;;;3.40
25514;BMP180;48128;54.242;10.280;2024-03-08T09:09:57;101900.00;;;3.40
25514;BMP180;48128;54.242;10.280;2024-03-08T09:12:26;101908.00;;;3.40
25514;BMP180;48128;54.242;10.280;2024-03-08T09:14:53;101892.00;;;3.40
25514;BMP180;48128;54.242;10.280;2024-03-08T09:17:20;101893.00;;;3.50
25514;BMP180;48128;54.242;10.280;2024-03-08T09:19:47;101893.00;;;3.60
25514;BMP180;48128;54.242;10.280;2024-03-08T09:22:15;101887.00;;;3.80
25514;BMP180;48128;54.242;10.280;2024-03-08T09:24:42;101896.00;;;3.90
25514;BMP180;48128;54.242;10.280;2024-03-08T09:27:12;101894.00;;;4.00
25514;BMP180;48128;54.242;10.280;2024-03-08T09:29:40;101888.00;;;4.10
25514;BMP180;48128;54.242;10.280;2024-03-08T09:32:07;101901.00;;;4.10
25514;BMP180;48128;54.242;10.280;2024-03-08T09:34:35;101902.00;;;4.30
25514;BMP180;48128;54.242;10.280;2024-03-08T09:37:04;101893.00;;;4.40
25514;BMP180;48128;54.242;10.280;2024-03-08T09:39:32;101908.00;;;4.50
25514;BMP180;48128;54.242;10.280;2024-03-08T09:42:01;101912.00;;;4.50
25514;BMP180;48128;54.242;10.280;2024-03-08T09:44:28;101916.00;;;4.60
25514;BMP180;48128;54.242;10.280;2024-03-08T09:46:55;101885.00;;;4.80
25514;BMP180;48128;54.242;10.280;2024-03-08T09:49:25;101909.00;;;4.90
25514;BMP180;48128;54.242;10.280;2024-03-08T09:51:52;101925.00;;;4.90
25514;BMP180;48128;54.242;10.280;2024-03-08T09:54:20;101917.00;;;4.80
25514;BMP180;48128;54.242;10.280;2024-03-08T09:56:52;101903.00;;;4.90
25514;BMP180;48128;54.242;10.280;2024-03-08T09:59:20;101892.00;;;5.00
25514;BMP180;48128;54.242;10.280;2024-03-08T10:02:12;101891.00;;;5.10
25514;BMP180;48128;54.242;10.280;2024-03-08T10:04:42;101898.00;;;5.30
25514;BMP180;48128;54.242;10.280;2024-03-08T10:07:09;101894.00;;;5.50
25514;BMP180;48128;54.242;10.280;2024-03-08T10:09:36;101924.00;;;5.60
25514;BMP180;48128;54.242;10.280;2024-03-08T10:12:04;101918.00;;;5.50
25514;BMP180;48128;54.242;10.280;2024-03-08T10:14:32;101891.00;;;5.50
25514;BMP180;48128;54.242;10.280;2024-03-08T10:17:00;101895.00;;;5.50
25514;BMP180;48128;54.242;10.280;2024-03-08T10:19:28;101915.00;;;5.40
25514;BMP180;48128;54.242;10.280;2024-03-08T10:21:58;101885.00;;;5.50
25514;BMP180;48128;54.242;10.280;2024-03-08T10:24:26;101906.00;;;5.70
25514;BMP180;48128;54.242;10.280;2024-03-08T10:27:02;101920.00;;;5.70
25514;BMP180;48128;54.242;10.280;2024-03-08T10:29:32;101902.00;;;5.80
25514;BMP180;48128;54.242;10.280;2024-03-08T10:31:59;101926.00;;;5.80
25514;BMP180;48128;54.242;10.280;2024-03-08T10:34:26;101905.00;;;5.80
25514;BMP180;48128;54.242;10.280;2024-03-08T10:36:54;101901.00;;;5.70
25514;BMP180;48128;54.242;10.280;2024-03-08T10:39:24;101894.00;;;5.90
25514;BMP180;48128;54.242;10.280;2024-03-08T10:41:58;101908.00;;;5.90
25514;BMP180;48128;54.242;10.280;2024-03-08T10:50:09;101911.00;;;6.20
25514;BMP180;48128;54.242;10.280;2024-03-08T10:52:39;101886.00;;;6.40
25514;BMP180;48128;54.242;10.280;2024-03-08T10:55:07;101912.00;;;6.70
25514;BMP180;48128;54.242;10.280;2024-03-08T10:57:39;101908.00;;;6.80
25514;BMP180;48128;54.242;10.280;2024-03-08T11:00:08;101913.00;;;6.90
25514;BMP180;48128;54.242;10.280;2024-03-08T11:02:43;101885.00;;;6.80
25514;BMP180;48128;54.242;10.280;2024-03-08T11:05:10;101873.00;;;6.80
25514;BMP180;48128;54.242;10.280;2024-03-08T11:07:44;101897.00;;;6.70
25514;BMP180;48128;54.242;10.280;2024-03-08T11:10:21;101879.00;;;6.80
25514;BMP180;48128;54.242;10.280;2024-03-08T11:12:48;101865.00;;;6.80
25514;BMP180;48128;54.242;10.280;2024-03-08T11:15:15;101880.00;;;6.70
25514;BMP180;48128;54.242;10.280;2024-03-08T11:17:48;101897.00;;;6.70
25514;BMP180;48128;54.242;10.280;2024-03-08T11:20:17;101885.00;;;6.70
25514;BMP180;48128;54.242;10.280;2024-03-08T11:22:52;101889.00;;;6.70
25514;BMP180;48128;54.242;10.280;2024-03-08T11:25:37;101895.00;;;6.70
25514;BMP180;48128;54.242;10.280;2024-03-08T11:28:20;101904.00;;;6.70
25514;BMP180;48128;54.242;10.280;2024-03-08T11:33:35;101884.00;;;7.10
25514;BMP180;48128;54.242;10.280;2024-03-08T11:38:45;101901.00;;;7.70
25514;BMP180;48128;54.242;10.280;2024-03-08T11:41:20;101900.00;;;7.90
25514;BMP180;48128;54.242;10.280;2024-03-08T11:43:48;101900.00;;;7.70
25514;BMP180;48128;54.242;10.280;2024-03-08T11:46:17;101889.00;;;7.70
25514;BMP180;48128;54.242;10.280;2024-03-08T11:48:47;101869.00;;;7.80
25514;BMP180;48128;54.242;10.280;2024-03-08T11:51:15;101902.00;;;8.00
25514;BMP180;48128;54.242;10.280;2024-03-08T11:53:42;101897.00;;;8.20
25514;BMP180;48128;54.242;10.280;2024-03-08T11:56:14;101879.00;;;8.10
25514;BMP180;48128;54.242;10.280;2024-03-08T11:58:41;101853.00;;;8.10
25514;BMP180;48128;54.242;10.280;2024-03-08T12:01:10;101844.00;;;8.10
25514;BMP180;48128;54.242;10.280;2024-03-08T12:03:40;101848.00;;;8.00
25514;BMP180;48128;54.242;10.280;2024-03-08T12:06:12;101835.00;;;8.00
25514;BMP180;48128;54.242;10.280;2024-03-08T12:08:42;101839.00;;;8.20
25514;BMP180;48128;54.242;10.280;2024-03-08T12:11:08;101878.00;;;8.30
25514;BMP180;48128;54.242;10.280;2024-03-08T12:13:37;101856.00;;;8.40
25514;BMP180;48128;54.242;10.280;2024-03-08T12:16:04;101862.00;;;8.40
25514;BMP180;48128;54.242;10.280;2024-03-08T12:18:36;101837.00;;;8.40
25514;BMP180;48128;54.242;10.280;2024-03-08T12:23:35;101847.00;;;8.30
25514;BMP180;48128;54.242;10.280;2024-03-08T12:26:15;101849.00;;;8.30
25514;BMP180;48128;54.242;10.280;2024-03-08T12:28:44;101828.00;;;8.50
25514;BMP180;48128;54.242;10.280;2024-03-08T12:31:16;101834.00;;;8.60
25514;BMP180;48128;54.242;10.280;2024-03-08T12:33:53;101816.00;;;8.80
25514;BMP180;48128;54.242;10.280;2024-03-08T12:36:23;101815.00;;;8.50
25514;BMP180;48128;54.242;10.280;2024-03-08T12:38:51;101791.00;;;8.20
25514;BMP180;48128;54.242;10.280;2024-03-08T12:41:21;101771.00;;;8.30
25514;BMP180;48128;54.242;10.280;2024-03-08T12:43:48;101776.00;;;8.30
25514;BMP180;48128;54.242;10.280;2024-03-08T12:46:16;101811.00;;;8.20
25514;BMP180;48128;54.242;10.280;2024-03-08T12:48:43;101785.00;;;8.20
25514;BMP180;48128;54.242;10.280;2024-03-08T12:51:17;101767.00;;;8.30
25514;BMP180;48128;54.242;10.280;2024-03-08T12:53:45;101743.00;;;8.30
25514;BMP180;48128;54.242;10.280;2024-03-08T12:56:29;101765.00;;;8.40
25514;BMP180;48128;54.242;10.280;2024-03-08T12:58:56;101729.00;;;8.50
25514;BMP180;48128;54.242;10.280;2024-03-08T13:01:24;101748.00;;;8.70
25514;BMP180;48128;54.242;10.280;2024-03-08T13:03:51;101767.00;;;8.80
25514;BMP180;48128;54.242;10.280;2024-03-08T13:06:21;101756.00;;;8.60
25514;BMP180;48128;54.242;10.280;2024-03-08T13:08:51;101760.00;;;8.60
25514;BMP180;48128;54.242;10.280;2024-03-08T13:11:22;101736.00;;;8.30
25514;BMP180;48128;54.242;10.280;2024-03-08T13:13:53;101723.00;;;8.20
25514;BMP180;48128;54.242;10.280;2024-03-08T13:16:20;101718.00;;;8.00
25514;BMP180;48128;54.242;10.280;2024-03-08T13:18:48;101682.00;;;7.90
25514;BMP180;48128;54.242;10.280;2024-03-08T13:21:20;101706.00;;;8.00
25514;BMP180;48128;54.242;10.280;2024-03-08T13:23:50;101698.00;;;7.90
25514;BMP180;48128;54.242;10.280;2024-03-08T13:26:20;101675.00;;;8.00
25514;BMP180;48128;54.242;10.280;2024-03-08T13:29:09;101695.00;;;7.90
25514;BMP180;48128;54.242;10.280;2024-03-08T13:31:36;101709.00;;;7.80
25514;BMP180;48128;54.242;10.280;2024-03-08T13:34:03;101711.00;;;7.80
25514;BMP180;48128;54.242;10.280;2024-03-08T13:36:32;101706.00;;;7.80
25514;BMP180;48128;54.242;10.280;2024-03-08T13:39:06;101696.00;;;7.90
25514;BMP180;48128;54.242;10.280;2024-03-08T13:41:42;101692.00;;;8.00
25514;BMP180;48128;54.242;10.280;2024-03-08T13:44:09;101702.00;;;8.00
25514;BMP180;48128;54.242;10.280;2024-03-08T13:46:36;101705.00;;;8.00
25514;BMP180;48128;54.242;10.280;2024-03-08T13:49:05;101699.00;;;8.00
25514;BMP180;48128;54.242;10.280;2024-03-08T13:51:35;101695.00;;;7.80
25514;BMP180;48128;54.242;10.280;2024-03-08T13:54:02;101678.00;;;7.80
25514;BMP180;48128;54.242;10.280;2024-03-08T13:56:29;101682.00;;;7.60
25514;BMP180;48128;54.242;10.280;2024-03-08T13:58:59;101669.00;;;7.60
25514;BMP180;48128;54.242;10.280;2024-03-08T14:01:26;101672.00;;;7.40
25514;BMP180;48128;54.242;10.280;2024-03-08T14:03:53;101643.00;;;7.50
25514;BMP180;48128;54.242;10.280;2024-03-08T14:06:20;101658.00;;;7.30
25514;BMP180;48128;54.242;10.280;2024-03-08T14:08:47;101652.00;;;7.20
25514;BMP180;48128;54.242;10.280;2024-03-08T14:11:14;101643.00;;;7.20
25514;BMP180;48128;54.242;10.280;2024-03-08T14:13:42;101625.00;;;7.10
25514;BMP180;48128;54.242;10.280;2024-03-08T14:16:12;101598.00;;;7.00